sensor_id;sensor_type;location;lat;lon;timestamp;P1;durP1;ratioP1;P2;durP2;ratioP2
2698;SDS011;1359;51.798;12.174;2023-02-15T00:01:15;46.83;;;27.10;;
2698;SDS011;1359;51.798;12.174;2023-02-15T00:03:40;48.10;;;24.80;;
2698;SDS011;1359;51.798;12.174;2023-02-15T00:06:06;41.33;;;26.27;;
2698;SDS011;1359;51.798;12.174;2023-02-15T00:08:31;42.50;;;26.27;;
2698;SDS011;1359;51.798;12.174;2023-02-15T00:11:06;44.17;;;24.97;;
2698;SDS011;1359;51.798;12.174;2023-02-15T00:13:31;46.60;;;26.93;;
2698;SDS011;1359;51.798;12.174;2023-02-15T00:16:04;52.53;;;29.43;;
2698;SDS011;1359;51.798;12.174;2023-02-15T00:18:30;41.80;;;26.13;;
2698;SDS011;1359;51.798;12.174;2023-02-15T00:20:55;40.17;;;25.23;;
2698;SDS011;1359;51.798;12.174;2023-02-15T00:23:21;41.30;;;26.70;;
2698;SDS011;1359;51.798;12.174;2023-02-15T00:25:46;40.40;;;25.37;;
2698;SDS011;1359;51.798;12.174;2023-02-15T00:28:11;38.67;;;23.73;;
2698;SDS011;1359;51.798;12.174;2023-02-15T00:30:36;44.37;;;26.53;;
2698;SDS011;1359;51.798;12.174;2023-02-15T00:33:02;39.50;;;24.30;;
2698;SDS011;1359;51.798;12.174;2023-02-15T00:35:27;42.97;;;26.83;;
2698;SDS011;1359;51.798;12.174;2023-02-15T00:37:52;43.97;;;25.70;;
2698;SDS011;1359;51.798;12.174;2023-02-15T00:40:18;45.97;;;25.77;;
2698;SDS011;1359;51.798;12.174;2023-02-15T00:42:43;43.40;;;26.80;;
2698;SDS011;1359;51.798;12.174;2023-02-15T00:45:09;49.93;;;26.07;;
2698;SDS011;1359;51.798;12.174;2023-02-15T00:47:34;47.00;;;25.90;;
2698;SDS011;1359;51.798;12.174;2023-02-15T00:49:59;39.87;;;24.47;;
2698;SDS011;1359;51.798;12.174;2023-02-15T00:52:25;40.50;;;24.27;;
2698;SDS011;1359;51.798;12.174;2023-02-15T00:54:50;48.23;;;24.27;;
2698;SDS011;1359;51.798;12.174;2023-02-15T00:57:16;38.83;;;24.77;;
2698;SDS011;1359;51.798;12.174;2023-02-15T00:59:41;44.33;;;25.60;;
2698;SDS011;1359;51.798;12.174;2023-02-15T01:02:06;37.73;;;22.77;;
2698;SDS011;1359;51.798;12.174;2023-02-15T01:04:31;43.07;;;25.50;;
2698;SDS011;1359;51.798;12.174;2023-02-15T01:06:57;42.97;;;26.70;;
2698;SDS011;1359;51.798;12.174;2023-02-15T01:09:22;38.20;;;23.43;;
2698;SDS011;1359;51.798;12.174;2023-02-15T01:11:47;41.90;;;22.57;;
2698;SDS011;1359;51.798;12.174;2023-02-15T01:14:13;42.73;;;23.97;;
2698;SDS011;1359;51.798;12.174;2023-02-15T01:16:40;39.60;;;24.30;;
2698;SDS011;1359;51.798;12.174;2023-02-15T01:19:05;38.73;;;23.93;;
2698;SDS011;1359;51.798;12.174;2023-02-15T01:21:31;37.90;;;19.80;;
2698;SDS011;1359;51.798;12.174;2023-02-15T01:23:59;38.60;;;22.90;;
2698;SDS011;1359;51.798;12.174;2023-02-15T01:26:25;43.10;;;25.90;;
2698;SDS011;1359;51.798;12.174;2023-02-15T01:28:50;45.73;;;25.13;;
2698;SDS011;1359;51.798;12.174;2023-02-15T01:31:17;40.70;;;23.60;;
2698;SDS011;1359;51.798;12.174;2023-02-15T01:33:44;43.33;;;24.43;;
2698;SDS011;1359;51.798;12.174;2023-02-15T01:36:09;46.13;;;25.77;;
2698;SDS011;1359;51.798;12.174;2023-02-15T01:38:35;41.43;;;24.30;;
2698;SDS011;1359;51.798;12.174;2023-02-15T01:41:00;39.23;;;24.50;;
2698;SDS011;1359;51.798;12.174;2023-02-15T01:43:46;48.57;;;27.70;;
2698;SDS011;1359;51.798;12.174;2023-02-15T01:46:12;41.73;;;22.40;;
2698;SDS011;1359;51.798;12.174;2023-02-15T01:48:39;45.57;;;26.97;;
2698;SDS011;1359;51.798;12.174;2023-02-15T01:51:07;49.37;;;27.67;;
2698;SDS011;1359;51.798;12.174;2023-02-15T01:53:38;43.87;;;27.00;;
2698;SDS011;1359;51.798;12.174;2023-02-15T01:56:08;47.03;;;27.73;;
2698;SDS011;1359;51.798;12.174;2023-02-15T01:58:35;44.93;;;26.20;;
2698;SDS011;1359;51.798;12.174;2023-02-15T02:01:00;37.80;;;24.50;;
2698;SDS011;1359;51.798;12.174;2023-02-15T02:06:12;48.97;;;26.63;;
2698;SDS011;1359;51.798;12.174;2023-02-15T02:08:39;44.90;;;26.30;;
2698;SDS011;1359;51.798;12.174;2023-02-15T02:11:09;41.23;;;23.10;;
2698;SDS011;1359;51.798;12.174;2023-02-15T02:13:35;45.17;;;26.20;;
2698;SDS011;1359;51.798;12.174;2023-02-15T02:16:14;41.43;;;26.33;;
2698;SDS011;1359;51.798;12.174;2023-02-15T02:18:45;36.23;;;23.20;;
2698;SDS011;1359;51.798;12.174;2023-02-15T02:23:57;42.13;;;26.33;;
2698;SDS011;1359;51.798;12.174;2023-02-15T02:26:32;46.90;;;25.80;;
2698;SDS011;1359;51.798;12.174;2023-02-15T02:31:55;38.33;;;24.97;;
2698;SDS011;1359;51.798;12.174;2023-02-15T02:37:12;37.60;;;24.00;;
2698;SDS011;1359;51.798;12.174;2023-02-15T02:39:55;41.13;;;25.33;;
2698;SDS011;1359;51.798;12.174;2023-02-15T02:48:14;46.50;;;26.30;;
2698;SDS011;1359;51.798;12.174;2023-02-15T02:50:39;37.23;;;23.30;;
2698;SDS011;1359;51.798;12.174;2023-02-15T02:53:05;37.10;;;24.50;;
2698;SDS011;1359;51.798;12.174;2023-02-15T02:55:31;39.13;;;24.10;;
2698;SDS011;1359;51.798;12.174;2023-02-15T02:58:03;42.70;;;23.90;;
2698;SDS011;1359;51.798;12.174;2023-02-15T03:00:31;36.87;;;24.10;;
2698;SDS011;1359;51.798;12.174;2023-02-15T03:03:00;34.47;;;21.30;;
2698;SDS011;1359;51.798;12.174;2023-02-15T03:05:30;39.40;;;23.33;;
2698;SDS011;1359;51.798;12.174;2023-02-15T03:07:56;38.60;;;22.50;;
2698;SDS011;1359;51.798;12.174;2023-02-15T03:10:22;33.30;;;21.70;;
2698;SDS011;1359;51.798;12.174;2023-02-15T03:12:49;44.67;;;25.10;;
2698;SDS011;1359;51.798;12.174;2023-02-15T03:17:44;38.60;;;25.07;;
2698;SDS011;1359;51.798;12.174;2023-02-15T03:20:14;38.17;;;23.27;;
2698;SDS011;1359;51.798;12.174;2023-02-15T03:22:45;40.47;;;23.73;;
2698;SDS011;1359;51.798;12.174;2023-02-15T03:25:16;41.93;;;26.30;;
2698;SDS011;1359;51.798;12.174;2023-02-15T03:27:45;39.13;;;25.30;;
2698;SDS011;1359;51.798;12.174;2023-02-15T03:30:11;42.37;;;25.67;;
2698;SDS011;1359;51.798;12.174;2023-02-15T03:32:37;39.00;;;24.73;;
2698;SDS011;1359;51.798;12.174;2023-02-15T03:35:03;40.17;;;24.43;;
2698;SDS011;1359;51.798;12.174;2023-02-15T03:40:04;43.33;;;26.37;;
2698;SDS011;1359;51.798;12.174;2023-02-15T03:42:53;44.20;;;24.50;;
2698;SDS011;1359;51.798;12.174;2023-02-15T03:45:24;39.50;;;23.70;;
2698;SDS011;1359;51.798;12.174;2023-02-15T03:47:50;38.30;;;22.60;;
2698;SDS011;1359;51.798;12.174;2023-02-15T03:50:35;38.53;;;23.00;;
2698;SDS011;1359;51.798;12.174;2023-02-15T03:53:20;47.70;;;27.53;;
2698;SDS011;1359;51.798;12.174;2023-02-15T03:55:48;43.93;;;25.00;;
2698;SDS011;1359;51.798;12.174;2023-02-15T03:58:14;39.73;;;25.10;;
2698;SDS011;1359;51.798;12.174;2023-02-15T04:00:59;43.63;;;26.80;;
2698;SDS011;1359;51.798;12.174;2023-02-15T04:03:44;42.90;;;24.03;;
2698;SDS011;1359;51.798;12.174;2023-02-15T04:06:10;47.77;;;28.70;;
2698;SDS011;1359;51.798;12.174;2023-02-15T04:08:36;48.83;;;27.10;;
2698;SDS011;1359;51.798;12.174;2023-02-15T04:11:20;47.53;;;27.80;;
2698;SDS011;1359;51.798;12.174;2023-02-15T04:13:45;45.37;;;27.37;;
2698;SDS011;1359;51.798;12.174;2023-02-15T04:16:10;43.33;;;26.10;;
2698;SDS011;1359;51.798;12.174;2023-02-15T04:18:42;61.03;;;30.23;;
2698;SDS011;1359;51.798;12.174;2023-02-15T04:21:28;50.93;;;28.70;;
2698;SDS011;1359;51.798;12.174;2023-02-15T04:24:12;52.20;;;27.43;;
2698;SDS011;1359;51.798;12.174;2023-02-15T04:26:57;48.17;;;28.07;;
2698;SDS011;1359;51.798;12.174;2023-02-15T04:29:23;63.10;;;34.33;;
2698;SDS011;1359;51.798;12.174;2023-02-15T04:31:49;71.07;;;31.77;;
2698;SDS011;1359;51.798;12.174;2023-02-15T04:34:14;66.47;;;29.80;;
2698;SDS011;1359;51.798;12.174;2023-02-15T04:36:40;62.77;;;30.33;;
2698;SDS011;1359;51.798;12.174;2023-02-15T04:39:06;82.37;;;29.57;;
2698;SDS011;1359;51.798;12.174;2023-02-15T04:41:32;74.07;;;36.20;;
2698;SDS011;1359;51.798;12.174;2023-02-15T04:43:57;81.53;;;47.10;;
2698;SDS011;1359;51.798;12.174;2023-02-15T04:46:22;53.83;;;31.73;;
2698;SDS011;1359;51.798;12.174;2023-02-15T04:48:48;40.87;;;26.90;;
2698;SDS011;1359;51.798;12.174;2023-02-15T04:51:13;57.10;;;27.00;;
2698;SDS011;1359;51.798;12.174;2023-02-15T04:53:38;48.30;;;27.20;;
2698;SDS011;1359;51.798;12.174;2023-02-15T04:56:04;57.10;;;23.40;;
2698;SDS011;1359;51.798;12.174;2023-02-15T04:58:29;53.33;;;27.07;;
2698;SDS011;1359;51.798;12.174;2023-02-15T05:00:55;57.80;;;26.37;;
2698;SDS011;1359;51.798;12.174;2023-02-15T05:03:20;66.77;;;26.30;;
2698;SDS011;1359;51.798;12.174;2023-02-15T05:05:46;54.23;;;26.10;;
2698;SDS011;1359;51.798;12.174;2023-02-15T05:08:11;55.67;;;22.83;;
2698;SDS011;1359;51.798;12.174;2023-02-15T05:10:36;41.70;;;23.20;;
2698;SDS011;1359;51.798;12.174;2023-02-15T05:13:02;41.73;;;22.90;;
2698;SDS011;1359;51.798;12.174;2023-02-15T05:15:27;46.50;;;23.43;;
2698;SDS011;1359;51.798;12.174;2023-02-15T05:17:52;58.63;;;25.93;;
2698;SDS011;1359;51.798;12.174;2023-02-15T05:20:17;46.97;;;22.40;;
2698;SDS011;1359;51.798;12.174;2023-02-15T05:22:44;52.63;;;23.30;;
2698;SDS011;1359;51.798;12.174;2023-02-15T05:25:09;48.47;;;23.53;;
2698;SDS011;1359;51.798;12.174;2023-02-15T05:27:53;49.07;;;25.03;;
2698;SDS011;1359;51.798;12.174;2023-02-15T05:30:36;51.83;;;25.67;;
2698;SDS011;1359;51.798;12.174;2023-02-15T05:33:02;66.80;;;25.70;;
2698;SDS011;1359;51.798;12.174;2023-02-15T05:35:27;43.80;;;24.00;;
2698;SDS011;1359;51.798;12.174;2023-02-15T05:37:53;47.33;;;23.07;;
2698;SDS011;1359;51.798;12.174;2023-02-15T05:40:18;40.37;;;24.43;;
2698;SDS011;1359;51.798;12.174;2023-02-15T05:42:43;53.70;;;24.43;;
2698;SDS011;1359;51.798;12.174;2023-02-15T05:45:09;36.20;;;21.27;;
2698;SDS011;1359;51.798;12.174;2023-02-15T05:47:34;41.10;;;22.40;;
2698;SDS011;1359;51.798;12.174;2023-02-15T05:50:00;44.83;;;22.20;;
2698;SDS011;1359;51.798;12.174;2023-02-15T05:52:25;40.53;;;22.07;;
2698;SDS011;1359;51.798;12.174;2023-02-15T05:54:51;41.30;;;22.13;;
2698;SDS011;1359;51.798;12.174;2023-02-15T05:57:16;28.57;;;20.30;;
2698;SDS011;1359;51.798;12.174;2023-02-15T05:59:41;46.37;;;22.07;;
2698;SDS011;1359;51.798;12.174;2023-02-15T06:02:07;31.57;;;19.37;;
2698;SDS011;1359;51.798;12.174;2023-02-15T06:04:32;47.07;;;19.73;;
2698;SDS011;1359;51.798;12.174;2023-02-15T06:06:57;31.53;;;18.43;;
2698;SDS011;1359;51.798;12.174;2023-02-15T06:09:23;47.07;;;20.17;;
2698;SDS011;1359;51.798;12.174;2023-02-15T06:11:48;50.90;;;20.57;;
2698;SDS011;1359;51.798;12.174;2023-02-15T06:14:13;39.83;;;20.60;;
2698;SDS011;1359;51.798;12.174;2023-02-15T06:16:38;37.83;;;21.60;;
2698;SDS011;1359;51.798;12.174;2023-02-15T06:19:04;29.67;;;19.00;;
2698;SDS011;1359;51.798;12.174;2023-02-15T06:21:29;45.70;;;21.00;;
2698;SDS011;1359;51.798;12.174;2023-02-15T06:23:55;31.60;;;20.23;;
2698;SDS011;1359;51.798;12.174;2023-02-15T06:26:20;38.67;;;19.27;;
2698;SDS011;1359;51.798;12.174;2023-02-15T06:28:45;34.10;;;19.10;;
2698;SDS011;1359;51.798;12.174;2023-02-15T06:31:11;25.60;;;16.97;;
2698;SDS011;1359;51.798;12.174;2023-02-15T06:33:36;32.13;;;18.43;;
2698;SDS011;1359;51.798;12.174;2023-02-15T06:36:01;26.50;;;15.53;;
2698;SDS011;1359;51.798;12.174;2023-02-15T06:38:28;27.40;;;17.17;;
2698;SDS011;1359;51.798;12.174;2023-02-15T06:40:54;27.97;;;16.40;;
2698;SDS011;1359;51.798;12.174;2023-02-15T06:43:19;21.87;;;15.70;;
2698;SDS011;1359;51.798;12.174;2023-02-15T06:45:44;34.53;;;16.00;;
2698;SDS011;1359;51.798;12.174;2023-02-15T06:48:10;26.97;;;16.30;;
2698;SDS011;1359;51.798;12.174;2023-02-15T06:50:36;19.47;;;14.00;;
2698;SDS011;1359;51.798;12.174;2023-02-15T06:53:01;24.30;;;17.23;;
2698;SDS011;1359;51.798;12.174;2023-02-15T06:55:27;26.20;;;15.30;;
2698;SDS011;1359;51.798;12.174;2023-02-15T06:57:52;23.43;;;14.50;;
2698;SDS011;1359;51.798;12.174;2023-02-15T07:00:17;21.07;;;14.40;;
2698;SDS011;1359;51.798;12.174;2023-02-15T07:02:43;20.00;;;15.40;;
2698;SDS011;1359;51.798;12.174;2023-02-15T07:05:09;22.50;;;15.00;;
2698;SDS011;1359;51.798;12.174;2023-02-15T07:07:34;27.57;;;15.10;;
2698;SDS011;1359;51.798;12.174;2023-02-15T07:09:59;25.90;;;14.43;;
2698;SDS011;1359;51.798;12.174;2023-02-15T07:12:25;38.37;;;16.33;;
2698;SDS011;1359;51.798;12.174;2023-02-15T07:15:10;29.80;;;15.73;;
2698;SDS011;1359;51.798;12.174;2023-02-15T07:17:35;25.07;;;14.80;;
2698;SDS011;1359;51.798;12.174;2023-02-15T07:20:01;22.67;;;16.10;;
2698;SDS011;1359;51.798;12.174;2023-02-15T07:22:27;21.23;;;15.53;;
2698;SDS011;1359;51.798;12.174;2023-02-15T07:24:53;19.17;;;13.90;;
2698;SDS011;1359;51.798;12.174;2023-02-15T07:27:20;20.73;;;13.67;;
2698;SDS011;1359;51.798;12.174;2023-02-15T07:29:45;19.37;;;14.77;;
2698;SDS011;1359;51.798;12.174;2023-02-15T07:32:10;23.03;;;13.60;;
2698;SDS011;1359;51.798;12.174;2023-02-15T07:34:36;17.87;;;14.00;;
2698;SDS011;1359;51.798;12.174;2023-02-15T07:37:01;21.13;;;12.60;;
2698;SDS011;1359;51.798;12.174;2023-02-15T07:39:26;19.07;;;13.90;;
2698;SDS011;1359;51.798;12.174;2023-02-15T07:41:51;18.23;;;13.67;;
2698;SDS011;1359;51.798;12.174;2023-02-15T07:44:17;16.00;;;13.07;;
2698;SDS011;1359;51.798;12.174;2023-02-15T07:46:42;19.67;;;14.37;;
2698;SDS011;1359;51.798;12.174;2023-02-15T07:49:07;15.50;;;12.93;;
2698;SDS011;1359;51.798;12.174;2023-02-15T07:51:33;17.53;;;13.97;;
2698;SDS011;1359;51.798;12.174;2023-02-15T07:53:58;16.77;;;12.77;;
2698;SDS011;1359;51.798;12.174;2023-02-15T07:56:24;19.23;;;14.13;;
2698;SDS011;1359;51.798;12.174;2023-02-15T07:58:49;16.80;;;12.33;;
2698;SDS011;1359;51.798;12.174;2023-02-15T08:03:43;14.87;;;13.37;;
2698;SDS011;1359;51.798;12.174;2023-02-15T08:06:08;17.77;;;13.40;;
2698;SDS011;1359;51.798;12.174;2023-02-15T08:08:34;18.53;;;12.50;;
2698;SDS011;1359;51.798;12.174;2023-02-15T08:11:05;12.53;;;11.03;;
2698;SDS011;1359;51.798;12.174;2023-02-15T08:13:51;16.27;;;11.90;;
2698;SDS011;1359;51.798;12.174;2023-02-15T08:16:23;17.03;;;12.87;;
2698;SDS011;1359;51.798;12.174;2023-02-15T08:18:48;15.40;;;12.50;;
2698;SDS011;1359;51.798;12.174;2023-02-15T08:21:14;16.90;;;13.13;;
2698;SDS011;1359;51.798;12.174;2023-02-15T08:23:39;15.87;;;11.97;;
2698;SDS011;1359;51.798;12.174;2023-02-15T08:26:04;16.60;;;13.63;;
2698;SDS011;1359;51.798;12.174;2023-02-15T08:28:30;16.63;;;12.97;;
2698;SDS011;1359;51.798;12.174;2023-02-15T08:31:03;22.63;;;13.37;;
2698;SDS011;1359;51.798;12.174;2023-02-15T08:33:28;17.90;;;15.57;;
2698;SDS011;1359;51.798;12.174;2023-02-15T08:35:54;16.27;;;13.67;;
2698;SDS011;1359;51.798;12.174;2023-02-15T08:38:19;17.87;;;13.10;;
2698;SDS011;1359;51.798;12.174;2023-02-15T08:40:45;18.30;;;13.43;;
2698;SDS011;1359;51.798;12.174;2023-02-15T08:43:11;17.47;;;13.03;;
2698;SDS011;1359;51.798;12.174;2023-02-15T08:45:36;18.43;;;13.27;;
2698;SDS011;1359;51.798;12.174;2023-02-15T08:48:01;15.77;;;12.37;;
2698;SDS011;1359;51.798;12.174;2023-02-15T08:50:27;16.13;;;13.20;;
2698;SDS011;1359;51.798;12.174;2023-02-15T08:52:52;18.37;;;12.50;;
2698;SDS011;1359;51.798;12.174;2023-02-15T08:55:17;15.00;;;12.07;;
2698;SDS011;1359;51.798;12.174;2023-02-15T08:57:42;15.93;;;13.80;;
2698;SDS011;1359;51.798;12.174;2023-02-15T09:00:10;19.20;;;14.50;;
2698;SDS011;1359;51.798;12.174;2023-02-15T09:02:37;15.57;;;13.87;;
2698;SDS011;1359;51.798;12.174;2023-02-15T09:05:02;14.70;;;11.97;;
2698;SDS011;1359;51.798;12.174;2023-02-15T09:07:28;23.17;;;12.87;;
2698;SDS011;1359;51.798;12.174;2023-02-15T09:09:53;13.03;;;10.70;;
2698;SDS011;1359;51.798;12.174;2023-02-15T09:12:19;12.50;;;9.97;;
2698;SDS011;1359;51.798;12.174;2023-02-15T09:14:44;12.17;;;9.87;;
2698;SDS011;1359;51.798;12.174;2023-02-15T09:17:09;13.50;;;10.70;;
2698;SDS011;1359;51.798;12.174;2023-02-15T09:19:35;12.63;;;10.63;;
2698;SDS011;1359;51.798;12.174;2023-02-15T09:22:00;14.53;;;10.70;;
2698;SDS011;1359;51.798;12.174;2023-02-15T09:24:25;11.70;;;10.17;;
2698;SDS011;1359;51.798;12.174;2023-02-15T09:26:51;16.13;;;11.33;;
2698;SDS011;1359;51.798;12.174;2023-02-15T09:29:16;17.87;;;11.90;;
2698;SDS011;1359;51.798;12.174;2023-02-15T09:31:43;14.07;;;11.17;;
2698;SDS011;1359;51.798;12.174;2023-02-15T09:34:09;15.57;;;12.10;;
2698;SDS011;1359;51.798;12.174;2023-02-15T09:36:35;18.13;;;11.53;;
2698;SDS011;1359;51.798;12.174;2023-02-15T09:39:04;13.67;;;11.60;;
2698;SDS011;1359;51.798;12.174;2023-02-15T09:44:01;14.67;;;12.10;;
2698;SDS011;1359;51.798;12.174;2023-02-15T09:46:36;16.50;;;12.10;;
2698;SDS011;1359;51.798;12.174;2023-02-15T09:49:10;12.70;;;10.63;;
2698;SDS011;1359;51.798;12.174;2023-02-15T09:51:44;13.10;;;10.40;;
2698;SDS011;1359;51.798;12.174;2023-02-15T09:54:32;13.00;;;9.77;;
2698;SDS011;1359;51.798;12.174;2023-02-15T09:57:10;11.60;;;9.70;;
2698;SDS011;1359;51.798;12.174;2023-02-15T09:59:47;14.47;;;10.93;;
2698;SDS011;1359;51.798;12.174;2023-02-15T10:02:27;19.50;;;10.70;;
2698;SDS011;1359;51.798;12.174;2023-02-15T10:05:06;18.20;;;13.03;;
2698;SDS011;1359;51.798;12.174;2023-02-15T10:12:39;17.73;;;11.40;;
2698;SDS011;1359;51.798;12.174;2023-02-15T10:15:14;15.50;;;11.40;;
2698;SDS011;1359;51.798;12.174;2023-02-15T10:17:53;13.70;;;11.00;;
2698;SDS011;1359;51.798;12.174;2023-02-15T10:22:53;16.80;;;12.80;;
2698;SDS011;1359;51.798;12.174;2023-02-15T10:25:42;14.40;;;12.90;;
2698;SDS011;1359;51.798;12.174;2023-02-15T10:28:10;14.13;;;12.00;;
2698;SDS011;1359;51.798;12.174;2023-02-15T10:30:42;13.53;;;11.20;;
2698;SDS011;1359;51.798;12.174;2023-02-15T10:33:25;15.90;;;11.93;;
2698;SDS011;1359;51.798;12.174;2023-02-15T10:38:33;19.03;;;14.67;;
2698;SDS011;1359;51.798;12.174;2023-02-15T10:41:05;16.77;;;11.77;;
2698;SDS011;1359;51.798;12.174;2023-02-15T11:01:45;18.77;;;12.80;;
2698;SDS011;1359;51.798;12.174;2023-02-15T11:04:29;16.27;;;12.03;;
2698;SDS011;1359;51.798;12.174;2023-02-15T11:06:59;17.03;;;12.77;;
2698;SDS011;1359;51.798;12.174;2023-02-15T11:09:27;15.13;;;11.27;;
2698;SDS011;1359;51.798;12.174;2023-02-15T11:11:55;18.37;;;12.30;;
2698;SDS011;1359;51.798;12.174;2023-02-15T11:14:43;16.60;;;12.50;;
2698;SDS011;1359;51.798;12.174;2023-02-15T11:17:12;15.63;;;10.97;;
2698;SDS011;1359;51.798;12.174;2023-02-15T11:19:49;17.07;;;12.60;;
2698;SDS011;1359;51.798;12.174;2023-02-15T11:22:16;18.63;;;11.90;;
2698;SDS011;1359;51.798;12.174;2023-02-15T11:24:43;18.83;;;12.30;;
2698;SDS011;1359;51.798;12.174;2023-02-15T11:29:41;18.20;;;11.97;;
2698;SDS011;1359;51.798;12.174;2023-02-15T11:37:20;19.57;;;13.20;;
2698;SDS011;1359;51.798;12.174;2023-02-15T11:39:50;16.43;;;13.10;;
2698;SDS011;1359;51.798;12.174;2023-02-15T11:42:18;19.27;;;12.23;;
2698;SDS011;1359;51.798;12.174;2023-02-15T11:44:50;23.70;;;12.90;;
2698;SDS011;1359;51.798;12.174;2023-02-15T11:47:17;15.87;;;10.97;;
2698;SDS011;1359;51.798;12.174;2023-02-15T11:49:43;18.40;;;12.60;;
2698;SDS011;1359;51.798;12.174;2023-02-15T11:52:13;15.20;;;11.50;;
2698;SDS011;1359;51.798;12.174;2023-02-15T11:54:40;16.57;;;11.43;;
2698;SDS011;1359;51.798;12.174;2023-02-15T11:57:17;18.87;;;10.50;;
2698;SDS011;1359;51.798;12.174;2023-02-15T11:59:53;18.17;;;12.20;;
2698;SDS011;1359;51.798;12.174;2023-02-15T12:02:21;14.53;;;11.13;;
2698;SDS011;1359;51.798;12.174;2023-02-15T12:04:52;16.67;;;11.33;;
2698;SDS011;1359;51.798;12.174;2023-02-15T12:07:22;14.43;;;10.70;;
2698;SDS011;1359;51.798;12.174;2023-02-15T12:09:53;14.03;;;9.60;;
2698;SDS011;1359;51.798;12.174;2023-02-15T12:14:49;12.80;;;8.70;;
2698;SDS011;1359;51.798;12.174;2023-02-15T12:17:14;11.00;;;8.43;;
2698;SDS011;1359;51.798;12.174;2023-02-15T12:19:41;9.40;;;8.40;;
2698;SDS011;1359;51.798;12.174;2023-02-15T12:22:10;11.07;;;8.87;;
2698;SDS011;1359;51.798;12.174;2023-02-15T12:24:46;9.77;;;8.50;;
2698;SDS011;1359;51.798;12.174;2023-02-15T12:27:14;12.20;;;8.50;;
2698;SDS011;1359;51.798;12.174;2023-02-15T12:29:59;9.83;;;7.53;;
2698;SDS011;1359;51.798;12.174;2023-02-15T12:32:28;10.40;;;7.87;;
2698;SDS011;1359;51.798;12.174;2023-02-15T12:34:55;10.43;;;7.87;;
2698;SDS011;1359;51.798;12.174;2023-02-15T12:37:25;11.10;;;7.77;;
2698;SDS011;1359;51.798;12.174;2023-02-15T12:42:17;10.00;;;7.27;;
2698;SDS011;1359;51.798;12.174;2023-02-15T12:44:58;13.80;;;8.53;;
2698;SDS011;1359;51.798;12.174;2023-02-15T12:47:24;13.20;;;8.77;;
2698;SDS011;1359;51.798;12.174;2023-02-15T12:50:08;10.73;;;7.43;;
2698;SDS011;1359;51.798;12.174;2023-02-15T12:52:42;8.50;;;6.90;;
2698;SDS011;1359;51.798;12.174;2023-02-15T12:55:26;10.73;;;7.70;;
2698;SDS011;1359;51.798;12.174;2023-02-15T12:58:07;9.57;;;8.17;;
2698;SDS011;1359;51.798;12.174;2023-02-15T13:00:32;13.77;;;8.57;;
2698;SDS011;1359;51.798;12.174;2023-02-15T13:02:58;8.30;;;6.30;;
2698;SDS011;1359;51.798;12.174;2023-02-15T13:08:11;9.80;;;7.20;;
2698;SDS011;1359;51.798;12.174;2023-02-15T13:10:40;9.00;;;6.87;;
2698;SDS011;1359;51.798;12.174;2023-02-15T13:13:09;13.07;;;8.23;;
2698;SDS011;1359;51.798;12.174;2023-02-15T13:15:36;9.37;;;6.97;;
2698;SDS011;1359;51.798;12.174;2023-02-15T13:18:02;8.10;;;6.87;;
2698;SDS011;1359;51.798;12.174;2023-02-15T13:20:29;8.20;;;6.60;;
2698;SDS011;1359;51.798;12.174;2023-02-15T13:22:58;9.60;;;7.67;;
2698;SDS011;1359;51.798;12.174;2023-02-15T13:25:25;8.67;;;7.23;;
2698;SDS011;1359;51.798;12.174;2023-02-15T13:27:52;12.23;;;8.30;;
2698;SDS011;1359;51.798;12.174;2023-02-15T13:30:20;9.00;;;7.60;;
2698;SDS011;1359;51.798;12.174;2023-02-15T13:32:48;15.23;;;7.37;;
2698;SDS011;1359;51.798;12.174;2023-02-15T13:35:15;8.40;;;7.23;;
2698;SDS011;1359;51.798;12.174;2023-02-15T13:42:54;10.53;;;8.43;;
2698;SDS011;1359;51.798;12.174;2023-02-15T13:48:06;10.93;;;8.43;;
2698;SDS011;1359;51.798;12.174;2023-02-15T13:56:06;11.00;;;8.90;;
2698;SDS011;1359;51.798;12.174;2023-02-15T14:01:46;10.90;;;8.07;;
2698;SDS011;1359;51.798;12.174;2023-02-15T14:06:46;13.57;;;9.27;;
2698;SDS011;1359;51.798;12.174;2023-02-15T14:19:27;11.33;;;9.37;;
2698;SDS011;1359;51.798;12.174;2023-02-15T14:21:56;12.97;;;10.80;;
2698;SDS011;1359;51.798;12.174;2023-02-15T14:29:38;13.23;;;9.90;;
2698;SDS011;1359;51.798;12.174;2023-02-15T14:32:14;10.40;;;8.27;;
2698;SDS011;1359;51.798;12.174;2023-02-15T14:34:44;10.60;;;8.07;;
2698;SDS011;1359;51.798;12.174;2023-02-15T14:37:11;10.50;;;8.90;;
2698;SDS011;1359;51.798;12.174;2023-02-15T14:39:49;15.13;;;8.93;;
2698;SDS011;1359;51.798;12.174;2023-02-15T14:42:40;14.93;;;9.13;;
2698;SDS011;1359;51.798;12.174;2023-02-15T14:47:38;10.30;;;7.93;;
2698;SDS011;1359;51.798;12.174;2023-02-15T14:53:14;16.23;;;8.00;;
2698;SDS011;1359;51.798;12.174;2023-02-15T14:55:35;10.57;;;9.00;;
2698;SDS011;1359;51.798;12.174;2023-02-15T14:58:01;14.03;;;9.30;;
2698;SDS011;1359;51.798;12.174;2023-02-15T15:00:28;14.00;;;10.47;;
2698;SDS011;1359;51.798;12.174;2023-02-15T15:02:55;14.90;;;9.40;;
2698;SDS011;1359;51.798;12.174;2023-02-15T15:05:23;14.60;;;10.80;;
2698;SDS011;1359;51.798;12.174;2023-02-15T15:07:51;18.77;;;11.20;;
2698;SDS011;1359;51.798;12.174;2023-02-15T15:15:46;14.90;;;11.60;;
2698;SDS011;1359;51.798;12.174;2023-02-15T15:20:56;14.67;;;10.17;;
2698;SDS011;1359;51.798;12.174;2023-02-15T15:25:47;15.60;;;9.37;;
2698;SDS011;1359;51.798;12.174;2023-02-15T15:30:57;21.67;;;10.23;;
2698;SDS011;1359;51.798;12.174;2023-02-15T15:33:42;12.93;;;8.43;;
2698;SDS011;1359;51.798;12.174;2023-02-15T15:46:24;11.67;;;9.13;;
2698;SDS011;1359;51.798;12.174;2023-02-15T15:48:53;20.40;;;10.87;;
2698;SDS011;1359;51.798;12.174;2023-02-15T15:51:31;12.37;;;10.03;;
2698;SDS011;1359;51.798;12.174;2023-02-15T15:53:58;11.50;;;9.67;;
2698;SDS011;1359;51.798;12.174;2023-02-15T15:56:30;12.80;;;9.57;;
2698;SDS011;1359;51.798;12.174;2023-02-15T15:59:04;10.30;;;9.20;;
2698;SDS011;1359;51.798;12.174;2023-02-15T16:01:31;11.63;;;8.90;;
2698;SDS011;1359;51.798;12.174;2023-02-15T16:03:59;10.73;;;9.43;;
2698;SDS011;1359;51.798;12.174;2023-02-15T16:06:28;13.00;;;10.17;;
2698;SDS011;1359;51.798;12.174;2023-02-15T16:08:54;13.33;;;9.13;;
2698;SDS011;1359;51.798;12.174;2023-02-15T16:11:21;10.77;;;8.47;;
2698;SDS011;1359;51.798;12.174;2023-02-15T16:13:47;13.23;;;9.33;;
2698;SDS011;1359;51.798;12.174;2023-02-15T16:16:13;12.23;;;9.33;;
2698;SDS011;1359;51.798;12.174;2023-02-15T16:18:44;15.67;;;9.47;;
2698;SDS011;1359;51.798;12.174;2023-02-15T16:21:17;11.87;;;9.80;;
2698;SDS011;1359;51.798;12.174;2023-02-15T16:23:50;25.13;;;17.10;;
2698;SDS011;1359;51.798;12.174;2023-02-15T16:29:17;34.93;;;23.93;;
2698;SDS011;1359;51.798;12.174;2023-02-15T16:31:43;32.80;;;23.07;;
2698;SDS011;1359;51.798;12.174;2023-02-15T16:34:37;38.77;;;28.73;;
2698;SDS011;1359;51.798;12.174;2023-02-15T16:39:57;38.37;;;23.43;;
2698;SDS011;1359;51.798;12.174;2023-02-15T16:42:22;33.87;;;23.37;;
2698;SDS011;1359;51.798;12.174;2023-02-15T16:44:50;36.70;;;22.47;;
2698;SDS011;1359;51.798;12.174;2023-02-15T16:47:17;32.33;;;18.47;;
2698;SDS011;1359;51.798;12.174;2023-02-15T16:49:45;31.10;;;20.50;;
2698;SDS011;1359;51.798;12.174;2023-02-15T16:52:13;27.70;;;20.00;;
2698;SDS011;1359;51.798;12.174;2023-02-15T16:54:41;23.30;;;17.73;;
2698;SDS011;1359;51.798;12.174;2023-02-15T16:57:13;18.90;;;15.33;;
2698;SDS011;1359;51.798;12.174;2023-02-15T16:59:41;20.67;;;15.80;;
2698;SDS011;1359;51.798;12.174;2023-02-15T17:02:17;17.97;;;15.10;;
2698;SDS011;1359;51.798;12.174;2023-02-15T17:04:43;17.53;;;13.10;;
2698;SDS011;1359;51.798;12.174;2023-02-15T17:07:19;21.03;;;15.80;;